Manea, United Kingdom
Current Conditions -  °F | °C
As of 2:23 PM on Monday 20 Oct 2014 (Local Time) from EGUN Reporting Station
Overcast Overcast  
Wind Chill: 15°   Ceiling: 3100
Heat Index: 15°   Visibility: 6mi
Dew Point: 15°   Wind: 17mph
Humidity: 100%   Direction: 230°SW
Pressure: 29.93"   Gusts: 23mph
Location:  52.48°N, 0.18°E
Report Text: EGUN 201323Z AUTO 23015G20KT 9999 SCT024 BKN031 BKN044 OVC170 15/15 A2993 RMK AO2 $
Loading
Personal Weather Stations






























Interactive Weather Map
Tropical Storm Tracking
New forecast layout! Learn more

10-Day Weather Forecast

Advertisements
Track Severe Weather on mobile